createdAt,value
2023-03-19T00:00:51.618Z,1007.93
2023-03-19T00:01:51.638Z,1007.96
2023-03-19T00:02:51.688Z,1007.91
2023-03-19T00:03:51.621Z,1007.93
2023-03-19T00:04:51.593Z,1007.94
2023-03-19T00:05:51.605Z,1007.90
2023-03-19T00:06:51.561Z,1007.89
2023-03-19T00:07:51.550Z,1007.91
2023-03-19T00:08:51.533Z,1007.91
2023-03-19T00:09:51.528Z,1007.88
2023-03-19T00:10:51.511Z,1007.90
2023-03-19T00:11:51.539Z,1007.88
2023-03-19T00:12:51.509Z,1007.86
2023-03-19T00:13:51.482Z,1007.90
2023-03-19T00:14:51.461Z,1007.88
2023-03-19T00:15:51.484Z,1007.88
2023-03-19T00:16:51.475Z,1007.86
2023-03-19T00:17:51.430Z,1007.85
2023-03-19T00:18:51.417Z,1007.84
2023-03-19T00:19:51.436Z,1007.90
2023-03-19T00:20:51.455Z,1007.88
2023-03-19T00:21:51.407Z,1007.86
2023-03-19T00:22:51.408Z,1007.86
2023-03-19T00:23:51.420Z,1007.85
2023-03-19T00:24:51.356Z,1007.83
2023-03-19T00:25:51.373Z,1007.84
2023-03-19T00:26:51.342Z,1007.80
2023-03-19T00:27:51.362Z,1007.84
2023-03-19T00:28:51.454Z,1007.85
2023-03-19T00:29:51.327Z,1007.84
2023-03-19T00:30:51.447Z,1007.82
2023-03-19T00:31:51.276Z,1007.87
2023-03-19T00:32:51.326Z,1007.86
2023-03-19T00:33:51.292Z,1007.86
2023-03-19T00:34:51.257Z,1007.82
2023-03-19T00:35:51.264Z,1007.85
2023-03-19T00:36:51.229Z,1007.95
2023-03-19T00:37:51.222Z,1007.94
2023-03-19T00:38:51.212Z,1007.93
2023-03-19T00:39:51.224Z,1007.93
2023-03-19T00:40:51.190Z,1007.91
2023-03-19T00:41:51.179Z,1007.86
2023-03-19T00:42:51.170Z,1007.89
2023-03-19T00:43:51.148Z,1007.88
2023-03-19T00:44:51.200Z,1007.91
2023-03-19T00:45:51.151Z,1007.89
2023-03-19T00:46:51.122Z,1007.92
2023-03-19T00:47:51.120Z,1007.90
2023-03-19T00:48:51.117Z,1007.91
2023-03-19T00:49:51.121Z,1007.90
2023-03-19T00:50:51.135Z,1007.95
2023-03-19T00:51:51.059Z,1007.94
2023-03-19T00:52:51.117Z,1007.94
2023-03-19T00:53:51.043Z,1008.00
2023-03-19T00:54:51.059Z,1007.96
2023-03-19T00:55:51.026Z,1007.98
2023-03-19T00:56:51.063Z,1008.02
2023-03-19T00:57:51.000Z,1008.01
2023-03-19T00:58:50.997Z,1008.04
2023-03-19T00:59:50.978Z,1008.00
2023-03-19T01:00:51.027Z,1008.04
2023-03-19T01:01:50.981Z,1008.01
2023-03-19T01:02:50.947Z,1008.04
2023-03-19T01:03:50.941Z,1008.04
2023-03-19T01:04:50.914Z,1008.05
2023-03-19T01:05:50.948Z,1008.02
2023-03-19T01:06:50.926Z,1008.03
2023-03-19T01:07:50.916Z,1008.04
2023-03-19T01:08:50.876Z,1008.02
2023-03-19T01:09:50.881Z,1008.05
2023-03-19T01:10:50.845Z,1008.03
2023-03-19T01:11:50.867Z,1008.03
2023-03-19T01:12:50.825Z,1008.03
2023-03-19T01:13:50.824Z,1008.02
2023-03-19T01:14:50.810Z,1008.00
2023-03-19T01:15:50.796Z,1008.01
2023-03-19T01:16:50.810Z,1008.02
2023-03-19T01:17:50.800Z,1008.04
2023-03-19T01:18:50.767Z,1008.03
2023-03-19T01:19:50.766Z,1008.03
2023-03-19T01:20:50.737Z,1008.04
2023-03-19T01:21:50.729Z,1008.02
2023-03-19T01:22:50.751Z,1008.04
2023-03-19T01:23:50.703Z,1008.06
2023-03-19T01:24:50.703Z,1008.02
2023-03-19T01:25:50.698Z,1008.03
2023-03-19T01:26:50.682Z,1008.02
2023-03-19T01:27:50.692Z,1008.02
2023-03-19T01:28:50.657Z,1008.04
2023-03-19T01:29:50.642Z,1008.03
2023-03-19T01:30:50.657Z,1008.04
2023-03-19T01:31:50.624Z,1008.03
2023-03-19T01:32:50.701Z,1008.04
2023-03-19T01:33:50.604Z,1008.05
2023-03-19T01:34:50.620Z,1008.05
2023-03-19T01:35:50.661Z,1008.04
2023-03-19T01:36:50.563Z,1008.08
2023-03-19T01:37:50.553Z,1008.10
2023-03-19T01:38:50.546Z,1008.09
2023-03-19T01:39:50.560Z,1008.10
2023-03-19T01:40:50.550Z,1008.04
2023-03-19T01:41:50.555Z,1008.07
2023-03-19T01:42:50.505Z,1008.00
2023-03-19T01:43:50.482Z,1008.02
2023-03-19T01:44:50.479Z,1008.03
2023-03-19T01:45:51.455Z,1008.01
2023-03-19T01:46:50.500Z,1008.01
2023-03-19T01:47:50.480Z,1008.03
2023-03-19T01:48:50.522Z,1008.08
2023-03-19T01:49:50.423Z,1008.04
2023-03-19T01:50:50.412Z,1008.13
2023-03-19T01:51:50.403Z,1008.12
2023-03-19T01:52:50.382Z,1008.08
2023-03-19T01:53:50.405Z,1008.11
2023-03-19T01:54:50.380Z,1008.11
2023-03-19T01:55:50.353Z,1008.13
2023-03-19T01:56:50.385Z,1008.13
2023-03-19T01:57:50.360Z,1008.12
2023-03-19T01:58:50.333Z,1008.12
2023-03-19T01:59:50.321Z,1008.08
2023-03-19T02:00:50.315Z,1008.08
2023-03-19T02:01:50.385Z,1008.09
2023-03-19T02:02:50.314Z,1008.07
2023-03-19T02:03:50.288Z,1008.06
2023-03-19T02:04:50.327Z,1008.04
2023-03-19T02:05:50.252Z,1008.06
2023-03-19T02:06:50.265Z,1008.07
2023-03-19T02:07:50.229Z,1008.08
2023-03-19T02:08:50.210Z,1008.05
2023-03-19T02:09:50.205Z,1008.03
2023-03-19T02:10:50.195Z,1008.04
2023-03-19T02:11:50.192Z,1008.04
2023-03-19T02:12:50.260Z,1008.01
2023-03-19T02:13:50.178Z,1008.05
2023-03-19T02:14:50.143Z,1007.98
2023-03-19T02:15:50.222Z,1007.96
2023-03-19T02:16:50.138Z,1007.98
2023-03-19T02:17:50.163Z,1007.87
2023-03-19T02:18:50.099Z,1007.91
2023-03-19T02:19:50.086Z,1007.86
2023-03-19T02:20:50.101Z,1007.85
2023-03-19T02:21:50.076Z,1007.85
2023-03-19T02:22:50.057Z,1007.89
2023-03-19T02:23:50.076Z,1007.91
2023-03-19T02:24:50.042Z,1007.87
2023-03-19T02:25:50.092Z,1007.92
2023-03-19T02:26:50.023Z,1007.88
2023-03-19T02:27:49.997Z,1007.88
2023-03-19T02:28:50.003Z,1007.86
2023-03-19T02:29:49.977Z,1007.87
2023-03-19T02:30:49.971Z,1007.89
2023-03-19T02:31:49.990Z,1007.94
2023-03-19T02:32:50.009Z,1007.98
2023-03-19T02:33:50.019Z,1007.96
2023-03-19T02:34:49.935Z,1007.96
2023-03-19T02:35:49.930Z,1007.93
2023-03-19T02:36:49.920Z,1007.96
2023-03-19T02:37:49.897Z,1007.96
2023-03-19T02:38:58.935Z,1007.97
2023-03-19T02:39:49.901Z,1008.00
2023-03-19T02:40:49.871Z,1007.94
2023-03-19T02:41:58.969Z,1007.98
2023-03-19T02:42:49.854Z,1007.97
2023-03-19T02:43:58.998Z,1007.96
2023-03-19T02:44:49.817Z,1007.91
2023-03-19T02:45:49.830Z,1007.94
2023-03-19T02:46:49.841Z,1007.99
2023-03-19T02:47:49.778Z,1007.93
2023-03-19T02:48:49.775Z,1008.01
2023-03-19T02:49:49.794Z,1007.91
2023-03-19T02:50:49.748Z,1007.97
2023-03-19T02:51:49.735Z,1007.94
2023-03-19T02:52:49.740Z,1007.95
2023-03-19T02:53:49.729Z,1007.93
2023-03-19T02:54:49.715Z,1007.88
2023-03-19T02:55:49.750Z,1007.85
2023-03-19T02:56:49.690Z,1007.92
2023-03-19T02:57:59.061Z,1007.88
2023-03-19T02:58:49.661Z,1007.87
2023-03-19T02:59:49.650Z,1007.89
2023-03-19T03:00:49.693Z,1007.86
2023-03-19T03:01:49.685Z,1007.83
2023-03-19T03:02:49.619Z,1007.83
2023-03-19T03:03:49.618Z,1007.87
2023-03-19T03:04:49.603Z,1007.89
2023-03-19T03:05:49.646Z,1007.87
2023-03-19T03:06:49.572Z,1007.87
2023-03-19T03:07:49.570Z,1007.86
2023-03-19T03:08:49.628Z,1007.85
2023-03-19T03:09:49.553Z,1007.86
2023-03-19T03:10:49.541Z,1007.84
2023-03-19T03:11:49.524Z,1007.85
2023-03-19T03:12:49.515Z,1007.86
2023-03-19T03:13:49.512Z,1007.87
2023-03-19T03:14:49.520Z,1007.84
2023-03-19T03:15:49.485Z,1007.85
2023-03-19T03:16:49.470Z,1007.88
2023-03-19T03:17:49.510Z,1007.87
2023-03-19T03:18:49.481Z,1007.90
2023-03-19T03:19:49.460Z,1007.89
2023-03-19T03:20:49.481Z,1007.90
2023-03-19T03:21:49.430Z,1007.91
2023-03-19T03:22:49.446Z,1007.87
2023-03-19T03:23:50.036Z,1007.85
2023-03-19T03:24:49.427Z,1007.90
2023-03-19T03:25:49.380Z,1007.93
2023-03-19T03:26:49.364Z,1007.93
2023-03-19T03:27:49.395Z,1007.93
2023-03-19T03:28:49.354Z,1007.92
2023-03-19T03:29:49.331Z,1007.91
2023-03-19T03:30:49.370Z,1007.95
2023-03-19T03:31:49.377Z,1007.94
2023-03-19T03:32:49.379Z,1007.97
2023-03-19T03:33:49.323Z,1008.04
2023-03-19T03:34:49.285Z,1008.09
2023-03-19T03:35:49.285Z,1008.12
2023-03-19T03:36:49.280Z,1008.22
2023-03-19T03:37:49.259Z,1008.26
2023-03-19T03:38:49.277Z,1008.39
2023-03-19T03:39:49.275Z,1008.42
2023-03-19T03:40:49.997Z,1008.45
2023-03-19T03:41:49.201Z,1008.45
2023-03-19T03:42:49.200Z,1008.49
2023-03-19T03:43:49.184Z,1008.46
2023-03-19T03:44:49.165Z,1008.39
2023-03-19T03:45:49.274Z,1008.32
2023-03-19T03:46:49.176Z,1008.33
2023-03-19T03:47:49.130Z,1008.39
2023-03-19T03:48:49.127Z,1008.43
2023-03-19T03:49:49.120Z,1008.41
2023-03-19T03:50:49.168Z,1008.47
2023-03-19T03:51:49.117Z,1008.43
2023-03-19T03:52:49.099Z,1008.33
2023-03-19T03:53:49.083Z,1008.29
2023-03-19T03:54:49.071Z,1008.28
2023-03-19T03:55:49.049Z,1008.39
2023-03-19T03:56:49.094Z,1008.45
2023-03-19T03:57:49.031Z,1008.50
2023-03-19T03:58:49.013Z,1008.46
2023-03-19T03:59:49.014Z,1008.42
2023-03-19T04:00:48.993Z,1008.35
2023-03-19T04:01:49.115Z,1008.40
2023-03-19T04:02:49.016Z,1008.42
2023-03-19T04:03:48.967Z,1008.44
2023-03-19T04:04:48.987Z,1008.44
2023-03-19T04:05:48.945Z,1008.41
2023-03-19T04:06:48.934Z,1008.40
2023-03-19T04:07:48.973Z,1008.45
2023-03-19T04:08:48.984Z,1008.47
2023-03-19T04:09:48.928Z,1008.53
2023-03-19T04:10:48.955Z,1008.53
2023-03-19T04:11:51.381Z,1008.50
2023-03-19T04:12:48.938Z,1008.46
2023-03-19T04:13:48.895Z,1008.51
2023-03-19T04:14:48.882Z,1008.55
2023-03-19T04:15:48.837Z,1008.57
2023-03-19T04:16:48.941Z,1008.54
2023-03-19T04:17:48.820Z,1008.59
2023-03-19T04:18:48.835Z,1008.62
2023-03-19T04:19:48.791Z,1008.66
2023-03-19T04:20:48.795Z,1008.59
2023-03-19T04:21:48.771Z,1008.60
2023-03-19T04:22:48.797Z,1008.58
2023-03-19T04:23:48.745Z,1008.67
2023-03-19T04:24:48.758Z,1008.63
2023-03-19T04:25:48.754Z,1008.68
2023-03-19T04:26:48.719Z,1008.67
2023-03-19T04:27:48.694Z,1008.67
2023-03-19T04:28:48.713Z,1008.71
2023-03-19T04:29:48.734Z,1008.68
2023-03-19T04:30:48.703Z,1008.73
2023-03-19T04:31:48.662Z,1008.74
2023-03-19T04:32:48.709Z,1008.69
2023-03-19T04:33:48.646Z,1008.70
2023-03-19T04:34:48.667Z,1008.73
2023-03-19T04:35:48.667Z,1008.73
2023-03-19T04:36:48.596Z,1008.72
2023-03-19T04:37:48.860Z,1008.73
2023-03-19T04:38:48.577Z,1008.79
2023-03-19T04:39:48.575Z,1008.81
2023-03-19T04:40:48.584Z,1008.79
2023-03-19T04:41:48.597Z,1008.76
2023-03-19T04:42:48.567Z,1008.82
2023-03-19T04:43:48.564Z,1008.81
2023-03-19T04:44:48.601Z,1008.79
2023-03-19T04:45:48.598Z,1008.81
2023-03-19T04:46:48.513Z,1008.75
2023-03-19T04:47:48.490Z,1008.74
2023-03-19T04:48:48.466Z,1008.76
2023-03-19T04:49:48.460Z,1008.79
2023-03-19T04:50:48.446Z,1008.76
2023-03-19T04:51:48.487Z,1008.76
2023-03-19T04:52:48.424Z,1008.75
2023-03-19T04:53:48.418Z,1008.74
2023-03-19T04:54:48.407Z,1008.75
2023-03-19T04:55:48.388Z,1008.76
2023-03-19T04:56:48.378Z,1008.75
2023-03-19T04:57:48.408Z,1008.68
2023-03-19T04:58:48.360Z,1008.71
2023-03-19T04:59:48.368Z,1008.65
2023-03-19T05:00:48.376Z,1008.63
2023-03-19T05:01:48.397Z,1008.62
2023-03-19T05:02:48.351Z,1008.62
2023-03-19T05:03:48.313Z,1008.67
2023-03-19T05:04:48.302Z,1008.67
2023-03-19T05:05:48.319Z,1008.66
2023-03-19T05:06:48.275Z,1008.73
2023-03-19T05:07:48.262Z,1008.69
2023-03-19T05:08:48.269Z,1008.77
2023-03-19T05:09:48.261Z,1008.77
2023-03-19T05:10:48.258Z,1008.78
2023-03-19T05:11:48.219Z,1008.79
2023-03-19T05:12:48.205Z,1008.78
2023-03-19T05:13:48.228Z,1008.72
2023-03-19T05:14:48.184Z,1008.72
2023-03-19T05:15:48.176Z,1008.63
2023-03-19T05:16:48.170Z,1008.64
2023-03-19T05:17:48.156Z,1008.60
2023-03-19T05:18:48.170Z,1008.55
2023-03-19T05:19:48.153Z,1008.51
2023-03-19T05:20:48.115Z,1008.43
2023-03-19T05:21:48.110Z,1008.43
2023-03-19T05:22:48.096Z,1008.41
2023-03-19T05:23:48.120Z,1008.44
2023-03-19T05:24:48.083Z,1008.47
2023-03-19T05:25:48.570Z,1008.52
2023-03-19T05:26:48.056Z,1008.46
2023-03-19T05:27:48.055Z,1008.49
2023-03-19T05:28:48.063Z,1008.46
2023-03-19T05:29:48.051Z,1008.44
2023-03-19T05:30:48.148Z,1008.42
2023-03-19T05:31:48.010Z,1008.33
2023-03-19T05:32:48.024Z,1008.30
2023-03-19T05:33:47.971Z,1008.25
2023-03-19T05:34:48.008Z,1008.15
2023-03-19T05:35:48.055Z,1008.13
2023-03-19T05:36:47.940Z,1008.07
2023-03-19T05:37:47.930Z,1008.03
2023-03-19T05:38:47.920Z,1007.94
2023-03-19T05:39:47.936Z,1007.98
2023-03-19T05:40:47.923Z,1007.99
2023-03-19T05:41:47.888Z,1008.00
2023-03-19T05:42:47.879Z,1007.99
2023-03-19T05:43:47.864Z,1008.03
2023-03-19T05:44:47.866Z,1008.04
2023-03-19T05:45:47.853Z,1008.05
2023-03-19T05:46:47.921Z,1008.06
2023-03-19T05:47:47.824Z,1008.05
2023-03-19T05:48:47.824Z,1008.03
2023-03-19T05:49:47.810Z,1008.09
2023-03-19T05:50:47.784Z,1008.09
2023-03-19T05:51:47.797Z,1008.11
2023-03-19T05:52:47.784Z,1008.08
2023-03-19T05:53:47.767Z,1008.08
2023-03-19T05:54:47.740Z,1008.09
2023-03-19T05:55:47.726Z,1008.12
2023-03-19T05:56:47.753Z,1008.08
2023-03-19T05:57:47.743Z,1008.08
2023-03-19T05:58:47.701Z,1008.10
2023-03-19T05:59:47.681Z,1008.12
2023-03-19T06:00:47.669Z,1008.09
2023-03-19T06:01:47.679Z,1008.13
2023-03-19T06:02:47.784Z,1008.14
2023-03-19T06:03:47.736Z,1008.16
2023-03-19T06:04:47.661Z,1008.16
2023-03-19T06:05:47.628Z,1008.16
2023-03-19T06:06:47.624Z,1008.18
2023-03-19T06:07:47.611Z,1008.22
2023-03-19T06:08:47.618Z,1008.22
2023-03-19T06:09:47.588Z,1008.20
2023-03-19T06:10:47.572Z,1008.24
2023-03-19T06:11:47.557Z,1008.24
2023-03-19T06:12:47.548Z,1008.25
2023-03-19T06:13:47.587Z,1008.26
2023-03-19T06:14:47.540Z,1008.25
2023-03-19T06:15:47.534Z,1008.30
2023-03-19T06:16:47.562Z,1008.30
2023-03-19T06:17:47.489Z,1008.32
2023-03-19T06:18:47.480Z,1008.34
2023-03-19T06:19:47.519Z,1008.38
2023-03-19T06:20:47.490Z,1008.41
2023-03-19T06:21:47.445Z,1008.44
2023-03-19T06:22:47.447Z,1008.45
2023-03-19T06:23:47.472Z,1008.48
2023-03-19T06:24:47.418Z,1008.40
2023-03-19T06:25:47.408Z,1008.45
2023-03-19T06:26:47.400Z,1008.47
2023-03-19T06:27:47.390Z,1008.45
2023-03-19T06:28:47.361Z,1008.48
2023-03-19T06:29:47.397Z,1008.49
2023-03-19T06:30:47.392Z,1008.49
2023-03-19T06:31:47.398Z,1008.52
2023-03-19T06:32:47.393Z,1008.55
2023-03-19T06:33:47.336Z,1008.59
2023-03-19T06:34:47.311Z,1008.62
2023-03-19T06:35:47.355Z,1008.63
2023-03-19T06:36:47.305Z,1008.65
2023-03-19T06:37:47.306Z,1008.63
2023-03-19T06:38:48.089Z,1008.69
2023-03-19T06:39:47.253Z,1008.68
2023-03-19T06:40:47.284Z,1008.76
2023-03-19T06:41:47.240Z,1008.73
2023-03-19T06:42:47.264Z,1008.77
2023-03-19T06:43:47.215Z,1008.77
2023-03-19T06:44:47.215Z,1008.83
2023-03-19T06:45:47.271Z,1008.91
2023-03-19T06:46:47.239Z,1008.97
2023-03-19T06:47:47.177Z,1009.05
2023-03-19T06:48:47.156Z,1009.16
2023-03-19T06:49:47.152Z,1009.22
2023-03-19T06:50:47.130Z,1009.26
2023-03-19T06:51:47.123Z,1009.26
2023-03-19T06:52:47.170Z,1009.28
2023-03-19T06:53:47.112Z,1009.25
2023-03-19T06:54:47.230Z,1009.24
2023-03-19T06:55:47.113Z,1009.22
2023-03-19T06:56:47.088Z,1009.31
2023-03-19T06:57:47.093Z,1009.29
2023-03-19T06:58:47.086Z,1009.32
2023-03-19T06:59:47.033Z,1009.48
2023-03-19T07:00:47.054Z,1009.57
2023-03-19T07:01:47.022Z,1009.67
2023-03-19T07:02:47.010Z,1009.81
2023-03-19T07:03:47.130Z,1009.93
2023-03-19T07:04:47.140Z,1009.94
2023-03-19T07:05:46.986Z,1010.06
2023-03-19T07:06:46.957Z,1010.04
2023-03-19T07:07:46.952Z,1010.05
2023-03-19T07:08:46.972Z,1010.10
2023-03-19T07:09:46.967Z,1010.09
2023-03-19T07:10:46.950Z,1009.99
2023-03-19T07:11:46.916Z,1009.87
2023-03-19T07:12:46.890Z,1009.80
2023-03-19T07:13:46.886Z,1009.75
2023-03-19T07:14:46.879Z,1009.82
2023-03-19T07:15:46.896Z,1009.98
2023-03-19T07:16:46.887Z,1010.13
2023-03-19T07:17:46.837Z,1010.21
2023-03-19T07:18:46.833Z,1010.24
2023-03-19T07:19:46.820Z,1010.20
2023-03-19T07:20:46.848Z,1010.04
2023-03-19T07:21:46.790Z,1009.95
2023-03-19T07:22:46.799Z,1009.80
2023-03-19T07:23:46.780Z,1009.79
2023-03-19T07:24:46.786Z,1009.74
2023-03-19T07:25:46.778Z,1009.81
2023-03-19T07:26:46.752Z,1009.84
2023-03-19T07:27:46.755Z,1009.85
2023-03-19T07:28:46.742Z,1009.83
2023-03-19T07:29:46.714Z,1009.69
2023-03-19T07:30:46.724Z,1009.63
2023-03-19T07:31:46.720Z,1009.59
2023-03-19T07:32:46.703Z,1009.54
2023-03-19T07:33:46.669Z,1009.42
2023-03-19T07:34:46.660Z,1009.37
2023-03-19T07:35:46.696Z,1009.30
2023-03-19T07:36:46.642Z,1009.28
2023-03-19T07:37:46.640Z,1009.24
2023-03-19T07:38:46.600Z,1009.17
2023-03-19T07:39:46.600Z,1009.15
2023-03-19T07:41:00.929Z,1009.19
2023-03-19T07:41:47.575Z,1009.18
2023-03-19T07:42:46.601Z,1009.21
2023-03-19T07:43:46.558Z,1009.25
2023-03-19T07:44:46.556Z,1009.29
2023-03-19T07:45:46.552Z,1009.25
2023-03-19T07:46:46.525Z,1009.25
2023-03-19T07:47:48.593Z,1009.20
2023-03-19T07:48:46.499Z,1009.18
2023-03-19T07:49:46.480Z,1009.19
2023-03-19T07:50:46.494Z,1009.17
2023-03-19T07:51:46.470Z,1009.17
2023-03-19T07:52:46.479Z,1009.18
2023-03-19T07:53:46.462Z,1009.21
2023-03-19T07:54:46.446Z,1009.22
2023-03-19T07:55:46.445Z,1009.27
2023-03-19T07:56:46.673Z,1009.26
2023-03-19T07:57:46.403Z,1009.25
2023-03-19T07:58:46.428Z,1009.29
2023-03-19T07:59:46.382Z,1009.31
2023-03-19T08:00:46.368Z,1009.41
2023-03-19T08:01:46.365Z,1009.43
2023-03-19T08:02:46.437Z,1009.47
2023-03-19T08:03:46.334Z,1009.49
2023-03-19T08:04:46.351Z,1009.43
2023-03-19T08:05:46.311Z,1009.38
2023-03-19T08:06:46.297Z,1009.37
2023-03-19T08:07:46.324Z,1009.32
2023-03-19T08:08:46.288Z,1009.31
2023-03-19T08:09:46.392Z,1009.23
2023-03-19T08:10:46.251Z,1009.25
2023-03-19T08:11:46.246Z,1009.30
2023-03-19T08:12:46.259Z,1009.31
2023-03-19T08:13:46.231Z,1009.33
2023-03-19T08:14:46.241Z,1009.32
2023-03-19T08:15:46.249Z,1009.36
2023-03-19T08:16:46.261Z,1009.37
2023-03-19T08:17:46.192Z,1009.37
2023-03-19T08:18:46.181Z,1009.39
2023-03-19T08:19:46.168Z,1009.42
2023-03-19T08:20:46.664Z,1009.43
2023-03-19T08:21:46.131Z,1009.51
2023-03-19T08:22:46.152Z,1009.53
2023-03-19T08:23:46.121Z,1009.55
2023-03-19T08:24:46.103Z,1009.55
2023-03-19T08:25:46.125Z,1009.67
2023-03-19T08:26:46.081Z,1009.73
2023-03-19T08:27:46.080Z,1009.82
2023-03-19T08:28:46.082Z,1009.94
2023-03-19T08:29:46.049Z,1010.01
2023-03-19T08:30:46.113Z,1010.04
2023-03-19T08:31:46.033Z,1010.15
2023-03-19T08:32:46.082Z,1010.11
2023-03-19T08:33:46.011Z,1010.15
2023-03-19T08:34:48.308Z,1010.11
2023-03-19T08:35:46.069Z,1010.18
2023-03-19T08:36:45.973Z,1010.17
2023-03-19T08:37:45.989Z,1010.23
2023-03-19T08:38:45.948Z,1010.24
2023-03-19T08:39:45.945Z,1010.28
2023-03-19T08:40:45.941Z,1010.30
2023-03-19T08:41:45.922Z,1010.28
2023-03-19T08:42:45.917Z,1010.30
2023-03-19T08:43:45.930Z,1010.30
2023-03-19T08:44:46.763Z,1010.27
2023-03-19T08:45:45.877Z,1010.21
2023-03-19T08:46:45.857Z,1010.19
2023-03-19T08:47:45.859Z,1010.22
2023-03-19T08:48:46.101Z,1010.16
2023-03-19T08:49:45.868Z,1010.15
2023-03-19T08:50:45.895Z,1010.17
2023-03-19T08:51:45.814Z,1010.13
2023-03-19T08:52:45.853Z,1010.14
2023-03-19T08:53:45.816Z,1010.11
2023-03-19T08:54:45.775Z,1010.11
2023-03-19T08:55:45.800Z,1010.09
2023-03-19T08:56:45.764Z,1010.15
2023-03-19T08:57:45.756Z,1010.13
2023-03-19T08:58:52.845Z,1010.09
2023-03-19T08:59:45.723Z,1010.02
2023-03-19T09:00:45.758Z,1009.93
2023-03-19T09:01:45.725Z,1009.87
2023-03-19T09:02:45.684Z,1009.78
2023-03-19T09:03:45.672Z,1009.75
2023-03-19T09:04:45.692Z,1009.69
2023-03-19T09:05:45.684Z,1009.63
2023-03-19T09:06:45.655Z,1009.56
2023-03-19T09:07:45.631Z,1009.52
2023-03-19T09:08:45.660Z,1009.50
2023-03-19T09:09:45.626Z,1009.51
2023-03-19T09:10:45.603Z,1009.48
2023-03-19T09:11:45.587Z,1009.47
2023-03-19T09:12:48.347Z,1009.43
2023-03-19T09:13:45.614Z,1009.42
2023-03-19T09:14:45.553Z,1009.44
2023-03-19T09:15:45.560Z,1009.40
2023-03-19T09:16:45.587Z,1009.38
2023-03-19T09:17:45.532Z,1009.40
2023-03-19T09:18:45.509Z,1009.38
2023-03-19T09:19:45.505Z,1009.34
2023-03-19T09:20:45.495Z,1009.28
2023-03-19T09:21:45.513Z,1009.26
2023-03-19T09:22:45.463Z,1009.26
2023-03-19T09:23:45.461Z,1009.24
2023-03-19T09:24:45.490Z,1009.22
2023-03-19T09:25:45.444Z,1009.23
2023-03-19T09:26:45.426Z,1009.26
2023-03-19T09:27:45.446Z,1009.27
2023-03-19T09:28:45.397Z,1009.28
2023-03-19T09:29:45.397Z,1009.27
2023-03-19T09:30:45.383Z,1009.33
2023-03-19T09:31:45.411Z,1009.31
2023-03-19T09:32:45.443Z,1009.36
2023-03-19T09:33:45.382Z,1009.41
2023-03-19T09:34:45.349Z,1009.40
2023-03-19T09:35:45.383Z,1009.35
2023-03-19T09:36:45.365Z,1009.35
2023-03-19T09:37:45.309Z,1009.36
2023-03-19T09:38:45.290Z,1009.34
2023-03-19T09:39:45.349Z,1009.35
2023-03-19T09:40:45.272Z,1009.30
2023-03-19T09:41:45.260Z,1009.30
2023-03-19T09:42:45.295Z,1009.30
2023-03-19T09:43:45.236Z,1009.31
2023-03-19T09:44:45.234Z,1009.25
2023-03-19T09:45:45.227Z,1009.29
2023-03-19T09:46:45.291Z,1009.26
2023-03-19T09:47:45.229Z,1009.27
2023-03-19T09:48:45.207Z,1009.22
2023-03-19T09:49:45.184Z,1009.21
2023-03-19T09:50:45.197Z,1009.26
2023-03-19T09:51:45.161Z,1009.27
2023-03-19T09:52:45.150Z,1009.27
2023-03-19T09:53:45.128Z,1009.28
2023-03-19T09:54:45.152Z,1009.25
2023-03-19T09:55:45.108Z,1009.29
2023-03-19T09:56:45.141Z,1009.28
2023-03-19T09:57:45.086Z,1009.29
2023-03-19T09:58:45.077Z,1009.30
2023-03-19T09:59:45.065Z,1009.28
2023-03-19T10:00:45.055Z,1009.28
2023-03-19T10:01:45.048Z,1009.30
2023-03-19T10:02:45.072Z,1009.33
2023-03-19T10:03:45.050Z,1009.27
2023-03-19T10:04:45.023Z,1009.31
2023-03-19T10:05:45.003Z,1009.31
2023-03-19T10:06:44.984Z,1009.29
2023-03-19T10:07:44.968Z,1009.30
2023-03-19T10:08:45.002Z,1009.29
2023-03-19T10:09:44.989Z,1009.29
2023-03-19T10:10:44.943Z,1009.31
2023-03-19T10:11:44.992Z,1009.31
2023-03-19T10:12:44.926Z,1009.39
2023-03-19T10:13:44.935Z,1009.33
2023-03-19T10:14:44.899Z,1009.34
2023-03-19T10:15:44.901Z,1009.30
2023-03-19T10:16:44.920Z,1009.37
2023-03-19T10:17:44.861Z,1009.36
2023-03-19T10:18:45.306Z,1009.39
2023-03-19T10:19:45.113Z,1009.38
2023-03-19T10:20:44.901Z,1009.37
2023-03-19T10:21:44.821Z,1009.40
2023-03-19T10:22:44.810Z,1009.40
2023-03-19T10:23:44.839Z,1009.45
2023-03-19T10:24:44.823Z,1009.38
2023-03-19T10:25:44.786Z,1009.39
2023-03-19T10:26:44.764Z,1009.38
2023-03-19T10:27:44.761Z,1009.41
2023-03-19T10:28:44.774Z,1009.37
2023-03-19T10:29:44.763Z,1009.46
2023-03-19T10:30:44.734Z,1009.47
2023-03-19T10:31:44.850Z,1009.45
2023-03-19T10:32:44.717Z,1009.49
2023-03-19T10:33:44.736Z,1009.37
2023-03-19T10:34:44.683Z,1009.41
2023-03-19T10:35:44.756Z,1009.40
2023-03-19T10:36:44.690Z,1009.45
2023-03-19T10:37:44.642Z,1009.49
2023-03-19T10:38:44.670Z,1009.42
2023-03-19T10:39:44.639Z,1009.41
2023-03-19T10:40:44.642Z,1009.41
2023-03-19T10:41:44.613Z,1009.39
2023-03-19T10:42:44.590Z,1009.38
2023-03-19T10:43:44.607Z,1009.40
2023-03-19T10:44:44.593Z,1009.31
2023-03-19T10:45:44.637Z,1009.31
2023-03-19T10:46:44.583Z,1009.35
2023-03-19T10:47:44.537Z,1009.30
2023-03-19T10:48:44.531Z,1009.36
2023-03-19T10:49:44.531Z,1009.36
2023-03-19T10:50:44.500Z,1009.31
2023-03-19T10:51:44.515Z,1009.31
2023-03-19T10:52:44.501Z,1009.39
2023-03-19T10:53:44.481Z,1009.37
2023-03-19T10:54:44.474Z,1009.38
2023-03-19T10:55:44.506Z,1009.40
2023-03-19T10:56:44.449Z,1009.39
2023-03-19T10:57:44.459Z,1009.39
2023-03-19T10:58:44.422Z,1009.37
2023-03-19T10:59:44.410Z,1009.38
2023-03-19T11:00:44.478Z,1009.36
2023-03-19T11:01:44.392Z,1009.39
2023-03-19T11:02:44.380Z,1009.41
2023-03-19T11:03:44.380Z,1009.42
2023-03-19T11:04:44.367Z,1009.39
2023-03-19T11:05:44.352Z,1009.42
2023-03-19T11:06:44.368Z,1009.45
2023-03-19T11:07:44.332Z,1009.42
2023-03-19T11:08:44.319Z,1009.46
2023-03-19T11:09:44.298Z,1009.42
2023-03-19T11:10:44.381Z,1009.47
2023-03-19T11:11:44.555Z,1009.43
2023-03-19T11:12:44.263Z,1009.42
2023-03-19T11:13:44.276Z,1009.52
2023-03-19T11:14:44.240Z,1009.43
2023-03-19T11:15:44.228Z,1009.46
2023-03-19T11:16:44.237Z,1009.37
2023-03-19T11:17:44.246Z,1009.37
2023-03-19T11:18:44.190Z,1009.43
2023-03-19T11:19:44.204Z,1009.46
2023-03-19T11:20:44.166Z,1009.48
2023-03-19T11:21:44.160Z,1009.47
2023-03-19T11:22:44.222Z,1009.43
2023-03-19T11:23:44.155Z,1009.47
2023-03-19T11:24:44.169Z,1009.44
2023-03-19T11:25:44.132Z,1009.42
2023-03-19T11:26:44.097Z,1009.42
2023-03-19T11:27:44.143Z,1009.36
2023-03-19T11:28:44.087Z,1009.38
2023-03-19T11:29:44.071Z,1009.38
2023-03-19T11:30:44.054Z,1009.39
2023-03-19T11:31:44.114Z,1009.39
2023-03-19T11:32:44.202Z,1009.41
2023-03-19T11:33:44.061Z,1009.39
2023-03-19T11:34:44.011Z,1009.41
2023-03-19T11:35:44.113Z,1009.39
2023-03-19T11:36:44.016Z,1009.36
2023-03-19T11:37:43.980Z,1009.39
2023-03-19T11:38:44.002Z,1009.34
2023-03-19T11:39:43.996Z,1009.36
2023-03-19T11:40:43.977Z,1009.32
2023-03-19T11:41:43.943Z,1009.28
2023-03-19T11:42:43.948Z,1009.31
2023-03-19T11:43:43.954Z,1009.27
2023-03-19T11:44:43.910Z,1009.26
2023-03-19T11:45:43.992Z,1009.28
2023-03-19T11:46:43.890Z,1009.24
2023-03-19T11:47:43.880Z,1009.23
2023-03-19T11:48:43.900Z,1009.21
2023-03-19T11:49:43.874Z,1009.28
2023-03-19T11:50:43.849Z,1009.21
2023-03-19T11:51:43.842Z,1009.18
2023-03-19T11:52:43.853Z,1009.23
2023-03-19T11:53:43.823Z,1009.24
2023-03-19T11:54:43.812Z,1009.25
2023-03-19T11:55:43.927Z,1009.19
2023-03-19T11:56:43.793Z,1009.26
2023-03-19T11:57:43.784Z,1009.28
2023-03-19T11:58:43.771Z,1009.26
2023-03-19T11:59:43.763Z,1009.28
2023-03-19T12:00:43.785Z,1009.27
2023-03-19T12:01:43.746Z,1009.27
2023-03-19T12:02:43.813Z,1009.27
2023-03-19T12:03:43.809Z,1009.25
2023-03-19T12:04:43.697Z,1009.23
2023-03-19T12:05:43.733Z,1009.24